Aviation Digital Data Service (ADDS)

Output produced by METARs form (0212 UTC 11 December 2016)
found at http://aviationweather.gov/adds/metars/
 
KDCA 102341Z 1100/1124 32006KT P6SM SKC 
     FM110700 VRB03KT P6SM BKN100 
     FM111100 07004KT P6SM BKN050 
     FM111700 17008KT P6SM BKN090